createdAt,value
2018-02-21T00:00:39.149Z,54.80
2018-02-21T00:01:39.172Z,56.20
2018-02-21T00:02:39.183Z,56.50
2018-02-21T00:03:39.209Z,56.80
2018-02-21T00:04:39.213Z,56.50
2018-02-21T00:05:39.239Z,57.70
2018-02-21T00:06:39.247Z,56.70
2018-02-21T00:07:39.266Z,57.10
2018-02-21T00:08:39.279Z,60.40
2018-02-21T00:09:39.295Z,57.50
2018-02-21T00:10:39.316Z,59.20
2018-02-21T00:11:39.330Z,59.20
2018-02-21T00:12:39.342Z,60.70
2018-02-21T00:13:39.358Z,58.60
2018-02-21T00:14:39.383Z,58.00
2018-02-21T00:15:39.397Z,59.00
2018-02-21T00:16:39.406Z,59.20
2018-02-21T00:17:39.429Z,59.60
2018-02-21T00:18:39.440Z,58.90
2018-02-21T00:19:39.459Z,59.70
2018-02-21T00:20:39.472Z,57.70
2018-02-21T00:21:39.492Z,59.20
2018-02-21T00:22:39.527Z,57.10
2018-02-21T00:23:39.523Z,57.00
2018-02-21T00:24:39.534Z,57.30
2018-02-21T00:25:39.550Z,58.40
2018-02-21T00:26:39.577Z,58.60
2018-02-21T00:27:39.588Z,59.70
2018-02-21T00:28:39.603Z,58.60
2018-02-21T00:29:39.620Z,57.20
2018-02-21T00:30:39.636Z,58.60
2018-02-21T00:31:39.645Z,57.40
2018-02-21T00:32:39.667Z,58.90
2018-02-21T00:33:39.679Z,57.40
2018-02-21T00:34:39.703Z,57.70
2018-02-21T00:35:39.709Z,60.70
2018-02-21T00:36:39.732Z,58.60
2018-02-21T00:37:39.742Z,61.40
2018-02-21T00:38:39.766Z,60.60
2018-02-21T00:39:39.773Z,61.50
2018-02-21T00:40:39.795Z,60.60
2018-02-21T00:41:39.806Z,61.50
2018-02-21T00:42:39.827Z,61.40
2018-02-21T00:43:39.838Z,61.00
2018-02-21T00:44:39.856Z,61.30
2018-02-21T00:45:39.874Z,60.30
2018-02-21T00:46:39.891Z,61.50
2018-02-21T00:47:39.908Z,59.30
2018-02-21T00:48:39.916Z,61.90
2018-02-21T00:49:39.939Z,59.80
2018-02-21T00:50:39.949Z,60.50
2018-02-21T00:51:39.965Z,62.00
2018-02-21T00:52:39.986Z,59.30
2018-02-21T00:53:40.002Z,61.40
2018-02-21T00:54:40.013Z,62.30
2018-02-21T00:55:40.030Z,61.90
2018-02-21T00:56:40.050Z,62.80
2018-02-21T00:57:40.066Z,60.00
2018-02-21T00:58:40.083Z,62.50
2018-02-21T00:59:40.092Z,61.40
2018-02-21T01:00:40.114Z,62.30
2018-02-21T01:01:40.130Z,61.40
2018-02-21T01:02:40.142Z,60.70
2018-02-21T01:03:40.154Z,60.40
2018-02-21T01:04:40.171Z,62.60
2018-02-21T01:05:40.187Z,62.50
2018-02-21T01:06:40.215Z,64.40
2018-02-21T01:07:40.224Z,62.20
2018-02-21T01:08:40.234Z,63.30
2018-02-21T01:09:40.251Z,61.10
2018-02-21T01:10:40.272Z,61.80
2018-02-21T01:11:40.288Z,64.30
2018-02-21T01:12:40.296Z,64.40
2018-02-21T01:13:40.323Z,61.50
2018-02-21T01:14:40.329Z,62.40
2018-02-21T01:15:40.346Z,62.20
2018-02-21T01:16:40.368Z,63.50
2018-02-21T01:17:40.376Z,64.60
2018-02-21T01:18:40.398Z,61.80
2018-02-21T01:19:40.409Z,63.30
2018-02-21T01:20:40.426Z,62.70
2018-02-21T01:21:40.444Z,63.60
2018-02-21T01:22:40.462Z,64.50
2018-02-21T01:23:40.471Z,64.70
2018-02-21T01:24:40.496Z,64.00
2018-02-21T01:25:40.504Z,63.90
2018-02-21T01:26:40.525Z,66.30
2018-02-21T01:27:40.538Z,61.90
2018-02-21T01:28:40.560Z,63.80
2018-02-21T01:29:40.566Z,62.80
2018-02-21T01:30:40.589Z,63.70
2018-02-21T01:31:40.604Z,64.30
2018-02-21T01:32:40.615Z,65.20
2018-02-21T01:33:40.636Z,64.70
2018-02-21T01:34:40.647Z,61.40
2018-02-21T01:35:40.667Z,61.40
2018-02-21T01:36:40.677Z,63.30
2018-02-21T01:37:40.694Z,64.00
2018-02-21T01:38:40.715Z,64.00
2018-02-21T01:39:40.724Z,65.00
2018-02-21T01:40:40.748Z,62.50
2018-02-21T01:41:40.756Z,65.10
2018-02-21T01:42:40.778Z,64.10
2018-02-21T01:43:40.789Z,66.30
2018-02-21T01:44:40.810Z,63.20
2018-02-21T01:45:40.820Z,64.30
2018-02-21T01:46:40.841Z,65.00
2018-02-21T01:47:40.850Z,64.70
2018-02-21T01:48:40.873Z,64.80
2018-02-21T01:49:40.884Z,63.50
2018-02-21T01:50:40.905Z,63.60
2018-02-21T01:51:40.914Z,63.10
2018-02-21T01:52:40.936Z,66.80
2018-02-21T01:53:40.952Z,62.80
2018-02-21T01:54:40.961Z,66.90
2018-02-21T01:55:40.976Z,65.50
2018-02-21T01:56:41.002Z,67.40
2018-02-21T01:57:41.015Z,65.80
2018-02-21T01:58:41.026Z,66.30
2018-02-21T01:59:41.040Z,66.30
2018-02-21T02:00:41.062Z,67.90
2018-02-21T02:01:41.078Z,65.90
2018-02-21T02:02:41.087Z,65.10
2018-02-21T02:03:41.105Z,65.10
2018-02-21T02:04:41.125Z,66.20
2018-02-21T02:05:41.141Z,64.60
2018-02-21T02:06:41.153Z,68.40
2018-02-21T02:07:41.167Z,66.60
2018-02-21T02:08:41.188Z,66.00
2018-02-21T02:09:41.197Z,64.60
2018-02-21T02:10:41.220Z,65.20
2018-02-21T02:11:41.235Z,64.80
2018-02-21T02:12:41.245Z,64.90
2018-02-21T02:13:41.262Z,66.30
2018-02-21T02:14:41.283Z,65.00
2018-02-21T02:15:41.301Z,66.10
2018-02-21T02:16:41.308Z,65.90
2018-02-21T02:17:41.328Z,65.40
2018-02-21T02:18:41.346Z,65.30
2018-02-21T02:19:41.361Z,65.50
2018-02-21T02:20:41.374Z,64.70
2018-02-21T02:21:41.386Z,66.80
2018-02-21T02:22:41.409Z,67.80
2018-02-21T02:23:41.424Z,63.10
2018-02-21T02:24:41.440Z,64.10
2018-02-21T02:25:41.455Z,66.20
2018-02-21T02:26:41.466Z,66.40
2018-02-21T02:27:41.480Z,66.20
2018-02-21T02:28:41.498Z,65.70
2018-02-21T02:29:41.518Z,69.10
2018-02-21T02:30:41.536Z,66.90
2018-02-21T02:31:41.544Z,64.50
2018-02-21T02:32:41.568Z,68.30
2018-02-21T02:33:41.576Z,68.50
2018-02-21T02:34:41.597Z,66.80
2018-02-21T02:35:41.608Z,66.90
2018-02-21T02:36:41.629Z,66.40
2018-02-21T02:37:41.642Z,66.20
2018-02-21T02:38:41.660Z,64.90
2018-02-21T02:39:41.679Z,65.20
2018-02-21T02:40:41.692Z,67.20
2018-02-21T02:41:41.702Z,67.90
2018-02-21T02:42:41.724Z,65.60
2018-02-21T02:43:41.733Z,68.40
2018-02-21T02:44:41.750Z,71.20
2018-02-21T02:45:41.765Z,67.90
2018-02-21T02:46:41.781Z,68.90
2018-02-21T02:47:41.797Z,65.90
2018-02-21T02:48:41.818Z,68.40
2018-02-21T02:49:41.833Z,68.20
2018-02-21T02:50:41.846Z,69.50
2018-02-21T02:51:41.868Z,67.80
2018-02-21T02:52:41.876Z,68.00
2018-02-21T02:53:41.895Z,65.20
2018-02-21T02:54:41.908Z,69.50
2018-02-21T02:55:41.927Z,69.60
2018-02-21T02:56:41.938Z,70.40
2018-02-21T02:57:41.959Z,67.60
2018-02-21T02:58:41.970Z,70.00
2018-02-21T02:59:41.990Z,68.20
2018-02-21T03:00:42.007Z,68.40
2018-02-21T03:01:42.022Z,68.80
2018-02-21T03:02:42.038Z,68.20
2018-02-21T03:03:42.059Z,69.10
2018-02-21T03:04:42.063Z,70.00
2018-02-21T03:05:42.086Z,69.50
2018-02-21T03:06:42.095Z,63.60
2018-02-21T03:07:42.112Z,69.40
2018-02-21T03:08:42.130Z,70.00
2018-02-21T03:09:42.146Z,68.10
2018-02-21T03:10:42.156Z,70.50
2018-02-21T03:11:42.172Z,68.00
2018-02-21T03:12:42.194Z,66.80
2018-02-21T03:13:42.208Z,66.50
2018-02-21T03:14:42.219Z,70.40
2018-02-21T03:15:42.234Z,66.00
2018-02-21T03:16:42.249Z,69.30
2018-02-21T03:17:42.271Z,67.00
2018-02-21T03:18:42.287Z,68.80
2018-02-21T03:19:42.297Z,65.80
2018-02-21T03:20:42.317Z,64.90
2018-02-21T03:21:42.333Z,65.90
2018-02-21T03:22:42.349Z,64.90
2018-02-21T03:23:42.364Z,68.10
2018-02-21T03:24:42.377Z,66.00
2018-02-21T03:25:42.390Z,67.50
2018-02-21T03:26:42.412Z,66.00
2018-02-21T03:27:42.426Z,69.00
2018-02-21T03:28:42.435Z,66.60
2018-02-21T03:29:42.453Z,66.20
2018-02-21T03:30:42.474Z,69.00
2018-02-21T03:31:42.484Z,62.30
2018-02-21T03:32:42.499Z,66.40
2018-02-21T03:33:42.515Z,65.30
2018-02-21T03:34:42.530Z,66.80
2018-02-21T03:35:42.545Z,65.30
2018-02-21T03:36:42.566Z,67.50
2018-02-21T03:37:42.576Z,62.30
2018-02-21T03:38:42.599Z,66.60
2018-02-21T03:39:42.610Z,63.50
2018-02-21T03:40:42.628Z,62.50
2018-02-21T03:41:42.638Z,63.40
2018-02-21T03:42:42.660Z,63.40
2018-02-21T03:43:42.668Z,64.10
2018-02-21T03:44:42.690Z,64.00
2018-02-21T03:45:42.705Z,65.60
2018-02-21T03:46:42.719Z,62.90
2018-02-21T03:47:42.737Z,64.00
2018-02-21T03:48:42.756Z,62.30
2018-02-21T03:49:42.768Z,62.20
2018-02-21T03:50:42.784Z,62.80
2018-02-21T03:51:42.799Z,62.40
2018-02-21T03:52:42.809Z,65.00
2018-02-21T03:53:42.831Z,62.10
2018-02-21T03:54:42.840Z,64.20
2018-02-21T03:55:42.860Z,63.40
2018-02-21T03:56:42.874Z,65.30
2018-02-21T03:57:42.890Z,61.50
2018-02-21T03:58:42.903Z,63.40
2018-02-21T03:59:42.923Z,63.80
2018-02-21T04:00:42.932Z,61.30
2018-02-21T04:01:42.954Z,63.00
2018-02-21T04:02:42.964Z,64.50
2018-02-21T04:03:42.984Z,62.40
2018-02-21T04:04:42.995Z,63.10
2018-02-21T04:05:43.016Z,62.40
2018-02-21T04:06:43.032Z,62.90
2018-02-21T04:07:43.042Z,60.30
2018-02-21T04:08:43.057Z,60.50
2018-02-21T04:09:43.078Z,61.20
2018-02-21T04:10:43.088Z,62.00
2018-02-21T04:11:43.104Z,61.20
2018-02-21T04:12:43.124Z,64.30
2018-02-21T04:13:43.140Z,62.30
2018-02-21T04:14:43.152Z,61.20
2018-02-21T04:15:43.165Z,62.10
2018-02-21T04:16:43.186Z,60.90
2018-02-21T04:17:43.198Z,63.50
2018-02-21T04:18:43.218Z,60.80
2018-02-21T04:19:43.228Z,61.70
2018-02-21T04:20:43.248Z,61.50
2018-02-21T04:21:43.260Z,60.20
2018-02-21T04:22:43.276Z,61.20
2018-02-21T04:23:43.295Z,63.10
2018-02-21T04:24:43.311Z,61.40
2018-02-21T04:25:43.321Z,60.60
2018-02-21T04:26:43.343Z,63.30
2018-02-21T04:27:43.357Z,63.80
2018-02-21T04:28:43.367Z,60.90
2018-02-21T04:29:43.384Z,58.90
2018-02-21T04:30:43.405Z,62.90
2018-02-21T04:31:43.421Z,62.60
2018-02-21T04:32:43.434Z,62.70
2018-02-21T04:33:43.451Z,63.00
2018-02-21T04:34:43.465Z,59.60
2018-02-21T04:35:43.476Z,59.60
2018-02-21T04:36:43.498Z,59.10
2018-02-21T04:37:43.515Z,59.50
2018-02-21T04:38:43.525Z,60.40
2018-02-21T04:39:43.538Z,59.00
2018-02-21T04:40:43.560Z,59.50
2018-02-21T04:41:43.575Z,61.90
2018-02-21T04:42:43.587Z,59.70
2018-02-21T04:43:43.601Z,60.00
2018-02-21T04:44:43.623Z,60.40
2018-02-21T04:45:43.640Z,61.10
2018-02-21T04:46:43.649Z,60.10
2018-02-21T04:47:43.662Z,60.60
2018-02-21T04:48:43.686Z,60.70
2018-02-21T04:49:43.694Z,58.80
2018-02-21T04:50:43.719Z,58.30
2018-02-21T04:51:43.731Z,59.10
2018-02-21T04:52:43.740Z,62.70
2018-02-21T04:53:43.757Z,58.50
2018-02-21T04:54:43.779Z,59.80
2018-02-21T04:55:43.794Z,60.20
2018-02-21T04:56:43.804Z,59.40
2018-02-21T04:57:43.819Z,57.70
2018-02-21T04:58:43.840Z,58.30
2018-02-21T04:59:43.856Z,59.20
2018-02-21T05:00:43.867Z,59.40
2018-02-21T05:01:43.881Z,59.60
2018-02-21T05:02:43.902Z,60.90
2018-02-21T05:03:43.917Z,60.30
2018-02-21T05:04:43.927Z,58.60
2018-02-21T05:05:43.950Z,62.40
2018-02-21T05:06:43.959Z,60.50
2018-02-21T05:07:43.979Z,61.40
2018-02-21T05:08:43.992Z,61.20
2018-02-21T05:09:44.011Z,59.50
2018-02-21T05:10:44.022Z,59.70
2018-02-21T05:11:44.041Z,57.20
2018-02-21T05:12:44.051Z,60.90
2018-02-21T05:13:44.074Z,59.70
2018-02-21T05:14:44.082Z,59.60
2018-02-21T05:15:44.103Z,58.60
2018-02-21T05:16:44.113Z,60.20
2018-02-21T05:17:44.134Z,58.90
2018-02-21T05:18:44.145Z,60.20
2018-02-21T05:19:44.165Z,61.50
2018-02-21T05:20:44.176Z,63.00
2018-02-21T05:21:44.190Z,60.00
2018-02-21T05:22:44.217Z,61.20
2018-02-21T05:23:44.221Z,61.50
2018-02-21T05:24:44.246Z,60.40
2018-02-21T05:25:44.256Z,61.00
2018-02-21T05:26:44.273Z,60.60
2018-02-21T05:27:44.282Z,58.90
2018-02-21T05:28:44.305Z,58.00
2018-02-21T05:29:44.315Z,59.20
2018-02-21T05:30:44.334Z,59.00
2018-02-21T05:31:44.345Z,59.00
2018-02-21T05:32:44.366Z,56.80
2018-02-21T05:33:44.379Z,59.00
2018-02-21T05:34:44.398Z,58.80
2018-02-21T05:35:44.406Z,60.80
2018-02-21T05:36:44.428Z,58.20
2018-02-21T05:37:44.443Z,60.70
2018-02-21T05:38:44.454Z,60.70
2018-02-21T05:39:44.468Z,58.70
2018-02-21T05:40:44.490Z,58.40
2018-02-21T05:41:44.504Z,59.50
2018-02-21T05:42:44.516Z,60.00
2018-02-21T05:43:44.529Z,59.60
2018-02-21T05:44:44.604Z,59.50
2018-02-21T05:45:44.562Z,60.40
2018-02-21T05:46:44.582Z,59.50
2018-02-21T05:47:44.592Z,59.10
2018-02-21T05:48:44.613Z,59.90
2018-02-21T05:49:44.623Z,61.40
2018-02-21T05:50:44.644Z,58.80
2018-02-21T05:51:44.653Z,60.10
2018-02-21T05:52:44.675Z,59.70
2018-02-21T05:53:44.685Z,61.60
2018-02-21T05:54:44.705Z,57.30
2018-02-21T05:55:44.720Z,60.60
2018-02-21T05:56:44.731Z,58.80
2018-02-21T05:57:44.749Z,58.20
2018-02-21T05:58:44.772Z,57.80
2018-02-21T05:59:44.782Z,59.50
2018-02-21T06:00:44.793Z,60.80
2018-02-21T06:01:44.817Z,57.10
2018-02-21T06:02:44.824Z,56.60
2018-02-21T06:03:44.837Z,60.40
2018-02-21T06:04:44.859Z,59.70
2018-02-21T06:05:44.874Z,59.40
2018-02-21T06:06:44.884Z,61.00
2018-02-21T06:07:44.900Z,59.70
2018-02-21T06:08:44.922Z,57.80
2018-02-21T06:09:44.936Z,58.20
2018-02-21T06:10:44.947Z,60.80
2018-02-21T06:11:44.967Z,57.10
2018-02-21T06:12:44.977Z,59.90
2018-02-21T06:13:44.997Z,58.40
2018-02-21T06:14:45.009Z,61.70
2018-02-21T06:15:45.029Z,59.30
2018-02-21T06:16:45.038Z,56.80
2018-02-21T06:17:45.059Z,59.10
2018-02-21T06:18:45.071Z,61.10
2018-02-21T06:19:45.094Z,56.90
2018-02-21T06:20:45.105Z,59.80
2018-02-21T06:21:45.121Z,59.40
2018-02-21T06:22:45.132Z,58.30
2018-02-21T06:23:45.146Z,58.80
2018-02-21T06:24:45.166Z,59.50
2018-02-21T06:25:45.178Z,61.00
2018-02-21T06:26:45.199Z,57.70
2018-02-21T06:27:45.206Z,58.90
2018-02-21T06:28:45.227Z,59.00
2018-02-21T06:29:45.238Z,57.50
2018-02-21T06:30:45.258Z,57.50
2018-02-21T06:31:45.268Z,61.00
2018-02-21T06:32:45.289Z,57.10
2018-02-21T06:33:45.304Z,58.60
2018-02-21T06:34:45.314Z,59.30
2018-02-21T06:35:45.337Z,60.70
2018-02-21T06:36:45.346Z,58.80
2018-02-21T06:37:45.365Z,59.50
2018-02-21T06:38:45.376Z,58.30
2018-02-21T06:39:45.395Z,58.20
2018-02-21T06:40:45.406Z,57.90
2018-02-21T06:41:45.426Z,60.10
2018-02-21T06:42:45.437Z,57.80
2018-02-21T06:43:45.450Z,58.50
2018-02-21T06:44:45.472Z,57.00
2018-02-21T06:45:45.488Z,58.40
2018-02-21T06:46:45.499Z,58.80
2018-02-21T06:47:45.513Z,57.30
2018-02-21T06:48:45.534Z,57.50
2018-02-21T06:49:45.549Z,59.40
2018-02-21T06:50:45.565Z,59.50
2018-02-21T06:51:45.579Z,57.00
2018-02-21T06:52:45.588Z,57.20
2018-02-21T06:53:45.606Z,58.40
2018-02-21T06:54:45.630Z,59.20
2018-02-21T06:55:45.635Z,60.30
2018-02-21T06:56:45.654Z,57.70
2018-02-21T06:57:45.665Z,57.60
2018-02-21T06:58:45.686Z,57.30
2018-02-21T06:59:45.701Z,57.60
2018-02-21T07:00:45.711Z,59.60
2018-02-21T07:01:45.729Z,56.70
2018-02-21T07:02:45.749Z,59.20
2018-02-21T07:03:45.768Z,57.90
2018-02-21T07:04:45.773Z,58.40
2018-02-21T07:05:45.788Z,58.40
2018-02-21T07:06:45.803Z,59.90
2018-02-21T07:07:45.823Z,58.60
2018-02-21T07:08:45.839Z,56.50
2018-02-21T07:09:45.858Z,58.40
2018-02-21T07:10:45.864Z,56.90
2018-02-21T07:11:45.885Z,57.90
2018-02-21T07:12:45.895Z,57.70
2018-02-21T07:13:45.914Z,56.00
2018-02-21T07:14:45.932Z,56.80
2018-02-21T07:15:45.940Z,58.90
2018-02-21T07:16:45.961Z,56.50
2018-02-21T07:17:45.972Z,59.80
2018-02-21T07:18:45.992Z,59.10
2018-02-21T07:19:46.003Z,57.20
2018-02-21T07:20:46.024Z,57.40
2018-02-21T07:21:46.034Z,57.30
2018-02-21T07:22:46.053Z,57.60
2018-02-21T07:23:46.069Z,56.80
2018-02-21T07:24:46.080Z,55.60
2018-02-21T07:25:46.100Z,57.30
2018-02-21T07:26:46.111Z,54.30
2018-02-21T07:27:46.124Z,55.00
2018-02-21T07:28:46.140Z,57.40
2018-02-21T07:29:46.165Z,54.60
2018-02-21T07:30:46.171Z,54.20
2018-02-21T07:31:46.193Z,56.40
2018-02-21T07:32:46.207Z,56.90
2018-02-21T07:33:46.224Z,56.60
2018-02-21T07:34:46.234Z,54.00
2018-02-21T07:35:46.255Z,55.80
2018-02-21T07:36:46.264Z,54.60
2018-02-21T07:37:46.286Z,54.40
2018-02-21T07:38:46.302Z,56.90
2018-02-21T07:39:46.311Z,53.20
2018-02-21T07:40:46.332Z,54.40
2018-02-21T07:41:46.343Z,57.00
2018-02-21T07:42:46.367Z,53.80
2018-02-21T07:43:46.379Z,55.00
2018-02-21T07:44:46.395Z,53.60
2018-02-21T07:45:46.410Z,54.80
2018-02-21T07:46:46.421Z,56.30
2018-02-21T07:47:46.436Z,54.00
2018-02-21T07:48:46.457Z,53.90
2018-02-21T07:49:46.475Z,54.30
2018-02-21T07:50:46.484Z,51.70
2018-02-21T07:51:46.501Z,53.50
2018-02-21T07:52:46.520Z,52.80
2018-02-21T07:53:46.536Z,54.20
2018-02-21T07:54:46.546Z,53.70
2018-02-21T07:55:46.568Z,52.70
2018-02-21T07:56:46.583Z,54.10
2018-02-21T07:57:46.598Z,52.20
2018-02-21T07:58:46.617Z,52.00
2018-02-21T07:59:46.631Z,53.80
2018-02-21T08:00:46.641Z,54.60
2018-02-21T08:01:46.657Z,53.10
2018-02-21T08:02:46.679Z,52.00
2018-02-21T08:03:46.693Z,50.80
2018-02-21T08:04:46.703Z,50.30
2018-02-21T08:05:46.721Z,52.20
2018-02-21T08:06:46.742Z,50.90
2018-02-21T08:07:46.757Z,51.10
2018-02-21T08:08:46.769Z,50.10
2018-02-21T08:09:46.789Z,50.50
2018-02-21T08:10:46.800Z,48.40
2018-02-21T08:11:46.816Z,49.50
2018-02-21T08:12:46.832Z,53.40
2018-02-21T08:13:46.854Z,51.70
2018-02-21T08:14:46.870Z,51.00
2018-02-21T08:15:46.880Z,50.10
2018-02-21T08:16:46.901Z,49.80
2018-02-21T08:17:46.913Z,50.30
2018-02-21T08:18:46.935Z,51.00
2018-02-21T08:19:46.944Z,51.20
2018-02-21T08:20:47.004Z,49.80
2018-02-21T08:21:46.977Z,48.90
2018-02-21T08:22:46.998Z,48.50
2018-02-21T08:23:47.009Z,48.00
2018-02-21T08:24:47.030Z,48.20
2018-02-21T08:25:47.051Z,47.80
2018-02-21T08:26:47.062Z,47.60
2018-02-21T08:27:47.078Z,47.50
2018-02-21T08:28:47.091Z,47.40
2018-02-21T08:29:47.106Z,48.20
2018-02-21T08:30:47.131Z,49.00
2018-02-21T08:31:47.139Z,47.40
2018-02-21T08:32:47.154Z,48.20
2018-02-21T08:33:47.176Z,47.20
2018-02-21T08:34:47.187Z,47.20
2018-02-21T08:35:47.208Z,47.40
2018-02-21T08:36:47.220Z,48.20
2018-02-21T08:37:47.241Z,47.20
2018-02-21T08:38:47.253Z,44.20
2018-02-21T08:39:47.275Z,45.90
2018-02-21T08:40:47.286Z,42.90
2018-02-21T08:41:47.305Z,43.50
2018-02-21T08:42:47.319Z,42.60
2018-02-21T08:43:47.339Z,43.20
2018-02-21T08:44:47.352Z,44.10
2018-02-21T08:45:47.375Z,43.10
2018-02-21T08:46:47.385Z,45.10
2018-02-21T08:47:47.400Z,42.50
2018-02-21T08:48:47.419Z,43.40
2018-02-21T08:49:47.442Z,41.50
2018-02-21T08:50:47.452Z,44.00
2018-02-21T08:51:47.473Z,44.20
2018-02-21T08:52:47.486Z,43.20
2018-02-21T08:53:47.507Z,44.40
2018-02-21T08:54:47.523Z,43.80
2018-02-21T08:55:47.540Z,44.30
2018-02-21T08:56:47.553Z,43.70
2018-02-21T08:57:47.575Z,40.90
2018-02-21T08:58:47.591Z,43.40
2018-02-21T08:59:47.602Z,41.30
2018-02-21T09:00:47.624Z,42.80
2018-02-21T09:01:47.641Z,41.70
2018-02-21T09:02:47.655Z,41.80
2018-02-21T09:03:47.671Z,41.80
2018-02-21T09:04:47.693Z,39.50
2018-02-21T09:05:47.704Z,38.70
2018-02-21T09:06:47.729Z,38.70
2018-02-21T09:07:47.742Z,40.00
2018-02-21T09:08:47.765Z,40.30
2018-02-21T09:09:47.779Z,41.10
2018-02-21T09:10:47.807Z,41.10
2018-02-21T09:11:47.816Z,40.00
2018-02-21T09:12:47.841Z,39.60
2018-02-21T09:13:47.861Z,40.10
2018-02-21T09:14:47.877Z,38.40
2018-02-21T09:15:47.902Z,37.50
2018-02-21T09:16:47.917Z,38.00
2018-02-21T09:17:47.944Z,37.30
2018-02-21T09:18:47.960Z,37.00
2018-02-21T09:19:47.987Z,37.20
2018-02-21T09:20:48.005Z,36.60
2018-02-21T09:21:48.062Z,37.20
2018-02-21T09:22:48.052Z,37.40
2018-02-21T09:23:48.073Z,37.20
2018-02-21T09:24:48.104Z,37.60
2018-02-21T09:25:48.124Z,37.00
2018-02-21T09:26:48.142Z,37.20
2018-02-21T09:27:48.164Z,38.40
2018-02-21T09:28:48.198Z,37.50
2018-02-21T09:29:48.214Z,37.20
2018-02-21T09:30:48.245Z,36.90
2018-02-21T09:31:48.260Z,37.10
2018-02-21T09:32:48.292Z,37.10
2018-02-21T09:33:48.310Z,37.70
2018-02-21T09:34:48.340Z,36.70
2018-02-21T09:35:48.360Z,37.60
2018-02-21T09:36:48.390Z,38.70
2018-02-21T09:37:48.411Z,35.80
2018-02-21T09:38:48.441Z,36.10
2018-02-21T09:39:48.470Z,34.70
2018-02-21T09:40:48.488Z,34.90
2018-02-21T09:41:48.514Z,35.70
2018-02-21T09:42:48.544Z,34.60
2018-02-21T09:43:48.570Z,34.00
2018-02-21T09:44:48.589Z,35.00
2018-02-21T09:45:48.623Z,35.20
2018-02-21T09:46:48.643Z,35.70
2018-02-21T09:47:48.667Z,35.00
2018-02-21T09:48:48.700Z,35.20
2018-02-21T09:49:48.726Z,35.50
2018-02-21T09:50:48.751Z,35.40
2018-02-21T09:51:48.773Z,35.10
2018-02-21T09:52:48.806Z,35.50
2018-02-21T09:53:48.832Z,35.70
2018-02-21T09:54:48.854Z,34.60
2018-02-21T09:55:48.887Z,35.10
2018-02-21T09:56:48.907Z,36.30
2018-02-21T09:57:48.943Z,35.70
2018-02-21T09:58:48.971Z,34.90
2018-02-21T09:59:48.993Z,35.50
2018-02-21T10:00:49.014Z,35.60
2018-02-21T10:01:49.048Z,34.80
2018-02-21T10:02:49.069Z,34.90
2018-02-21T10:03:49.108Z,35.70
2018-02-21T10:04:49.125Z,32.90
2018-02-21T10:05:49.156Z,33.20
2018-02-21T10:06:49.178Z,31.90
2018-02-21T10:07:49.210Z,33.60
2018-02-21T10:08:49.233Z,32.70
2018-02-21T10:09:49.261Z,33.80
2018-02-21T10:10:49.295Z,32.80
2018-02-21T10:11:49.315Z,33.30
2018-02-21T10:12:49.348Z,33.60
2018-02-21T10:13:49.373Z,31.90
2018-02-21T10:14:49.405Z,30.10
2018-02-21T10:15:49.427Z,29.90
2018-02-21T10:16:49.461Z,30.70
2018-02-21T10:17:49.534Z,32.00
2018-02-21T10:18:49.517Z,31.90
2018-02-21T10:19:49.538Z,32.40
2018-02-21T10:20:49.574Z,31.80
2018-02-21T10:21:49.595Z,32.70
2018-02-21T10:22:49.631Z,32.00
2018-02-21T10:23:49.650Z,32.30
2018-02-21T10:24:49.685Z,32.50
2018-02-21T10:25:49.712Z,31.70
2018-02-21T10:26:49.736Z,31.30
2018-02-21T10:27:49.764Z,31.70
2018-02-21T10:28:49.797Z,31.70
2018-02-21T10:29:49.829Z,30.40
2018-02-21T10:30:49.849Z,30.20
2018-02-21T10:31:49.876Z,32.40
2018-02-21T10:32:49.914Z,31.40
2018-02-21T10:33:49.940Z,32.40
2018-02-21T10:34:49.964Z,32.30
2018-02-21T10:35:49.991Z,31.40
2018-02-21T10:36:50.026Z,31.30
2018-02-21T10:37:50.054Z,33.00
2018-02-21T10:38:50.078Z,32.10
2018-02-21T10:39:50.106Z,31.20
2018-02-21T10:40:50.139Z,31.50
2018-02-21T10:41:50.164Z,31.80
2018-02-21T10:42:50.197Z,30.00
2018-02-21T10:43:50.226Z,30.40
2018-02-21T10:44:50.250Z,30.80
2018-02-21T10:45:50.279Z,30.00
2018-02-21T10:46:50.315Z,29.80
2018-02-21T10:47:50.341Z,31.50
2018-02-21T10:48:50.366Z,31.00
2018-02-21T10:49:50.394Z,30.50
2018-02-21T10:50:50.431Z,30.80
2018-02-21T10:51:50.457Z,30.60
2018-02-21T10:52:50.479Z,30.00
2018-02-21T10:53:50.513Z,30.60
2018-02-21T10:54:50.544Z,30.00
2018-02-21T10:55:50.571Z,29.70
2018-02-21T10:56:50.597Z,30.60
2018-02-21T10:57:50.624Z,30.40
2018-02-21T10:58:50.659Z,29.70
2018-02-21T10:59:50.683Z,30.10
2018-02-21T11:00:50.720Z,29.00
2018-02-21T11:01:50.740Z,29.00
2018-02-21T11:02:50.774Z,29.20
2018-02-21T11:03:50.797Z,29.60
2018-02-21T11:04:50.831Z,30.90
2018-02-21T11:05:50.859Z,30.10
2018-02-21T11:06:50.884Z,31.20
2018-02-21T11:07:50.917Z,31.60
2018-02-21T11:08:50.940Z,29.70
2018-02-21T11:09:50.975Z,31.00
2018-02-21T11:10:51.004Z,29.30
2018-02-21T11:11:51.027Z,28.00
2018-02-21T11:12:51.062Z,27.60
2018-02-21T11:13:51.090Z,27.80
2018-02-21T11:14:51.114Z,27.10
2018-02-21T11:15:51.148Z,28.10
2018-02-21T11:16:51.171Z,28.00
2018-02-21T11:17:51.207Z,28.30
2018-02-21T11:18:51.229Z,28.40
2018-02-21T11:19:51.264Z,27.70
2018-02-21T11:20:51.286Z,27.70
2018-02-21T11:21:51.316Z,28.80
2018-02-21T11:22:51.350Z,28.40
2018-02-21T11:23:51.376Z,28.20
2018-02-21T11:24:51.426Z,26.50
2018-02-21T11:25:51.431Z,28.20
2018-02-21T11:26:51.461Z,28.50
2018-02-21T11:27:51.488Z,29.90
2018-02-21T11:28:51.557Z,28.30
2018-02-21T11:29:51.552Z,28.70
2018-02-21T11:30:51.579Z,27.30
2018-02-21T11:31:51.603Z,28.60
2018-02-21T11:32:51.638Z,27.50
2018-02-21T11:33:51.667Z,27.50
2018-02-21T11:34:51.692Z,26.60
2018-02-21T11:35:51.719Z,26.00
2018-02-21T11:36:51.756Z,25.10
2018-02-21T11:37:51.781Z,25.20
2018-02-21T11:38:51.814Z,25.00
2018-02-21T11:39:51.834Z,25.80
2018-02-21T11:40:51.868Z,26.30
2018-02-21T11:41:51.892Z,26.50
2018-02-21T11:42:51.926Z,26.20
2018-02-21T11:43:51.954Z,25.50
2018-02-21T11:44:51.983Z,26.30
2018-02-21T11:45:52.007Z,26.20
2018-02-21T11:46:52.042Z,27.00
2018-02-21T11:47:52.068Z,26.30
2018-02-21T11:48:52.093Z,27.30
2018-02-21T11:49:52.121Z,25.80
2018-02-21T11:50:52.162Z,27.10
2018-02-21T11:51:52.182Z,25.70
2018-02-21T11:52:52.206Z,25.00
2018-02-21T11:53:52.241Z,25.20
2018-02-21T11:54:52.269Z,24.90
2018-02-21T11:55:52.297Z,25.40
2018-02-21T11:56:52.321Z,25.30
2018-02-21T11:57:52.350Z,25.90
2018-02-21T11:58:52.385Z,26.90
2018-02-21T11:59:52.406Z,25.80
2018-02-21T12:00:52.435Z,25.50
2018-02-21T12:01:52.465Z,26.30
2018-02-21T12:02:52.498Z,24.70
2018-02-21T12:03:52.521Z,25.80
2018-02-21T12:04:52.597Z,26.00
2018-02-21T12:05:52.578Z,26.00
2018-02-21T12:06:52.613Z,26.70
2018-02-21T12:07:52.636Z,24.80
2018-02-21T12:08:52.670Z,24.90
2018-02-21T12:09:52.692Z,25.70
2018-02-21T12:10:52.723Z,25.00
2018-02-21T12:11:52.750Z,24.60
2018-02-21T12:12:52.779Z,25.40
2018-02-21T12:13:52.815Z,25.70
2018-02-21T12:14:52.836Z,26.20
2018-02-21T12:15:52.864Z,25.00
2018-02-21T12:16:52.899Z,25.00
2018-02-21T12:17:52.928Z,25.30
2018-02-21T12:18:52.952Z,25.20
2018-02-21T12:19:52.985Z,24.20
2018-02-21T12:20:53.008Z,25.00
2018-02-21T12:21:53.043Z,24.20
2018-02-21T12:22:53.066Z,26.10
2018-02-21T12:23:53.100Z,25.50
2018-02-21T12:24:53.124Z,24.60
2018-02-21T12:25:53.159Z,25.20
2018-02-21T12:26:53.186Z,25.10
2018-02-21T12:27:53.214Z,26.00
2018-02-21T12:28:53.242Z,24.00
2018-02-21T12:29:53.265Z,24.50
2018-02-21T12:30:53.299Z,24.70
2018-02-21T12:31:53.326Z,25.30
2018-02-21T12:32:53.351Z,25.10
2018-02-21T12:33:53.384Z,24.60
2018-02-21T12:34:53.414Z,23.80
2018-02-21T12:35:53.433Z,25.40
2018-02-21T12:36:53.467Z,25.60
2018-02-21T12:37:53.496Z,25.80
2018-02-21T12:38:53.519Z,25.40
2018-02-21T12:39:53.545Z,24.90
2018-02-21T12:40:53.578Z,25.90
2018-02-21T12:41:53.606Z,25.50
2018-02-21T12:42:53.634Z,26.00
2018-02-21T12:43:53.660Z,26.10
2018-02-21T12:44:53.683Z,25.50
2018-02-21T12:45:53.710Z,26.20
2018-02-21T12:46:53.743Z,25.70
2018-02-21T12:47:53.764Z,25.40
2018-02-21T12:48:53.792Z,26.30
2018-02-21T12:49:53.821Z,26.50
2018-02-21T12:50:53.853Z,25.40
2018-02-21T12:51:53.878Z,26.60
2018-02-21T12:52:53.899Z,26.00